createdAt,value
2023-05-13T00:00:09.231Z,34.40
2023-05-13T00:01:09.291Z,34.39
2023-05-13T00:02:09.355Z,34.38
2023-05-13T00:03:09.581Z,34.41
2023-05-13T00:04:09.402Z,34.39
2023-05-13T00:05:09.450Z,34.41
2023-05-13T00:06:09.577Z,34.41
2023-05-13T00:07:09.583Z,34.39
2023-05-13T00:08:09.647Z,34.40
2023-05-13T00:09:09.693Z,34.39
2023-05-13T00:10:09.756Z,34.39
2023-05-13T00:11:09.762Z,34.41
2023-05-13T00:12:09.806Z,34.42
2023-05-13T00:13:09.856Z,34.41
2023-05-13T00:14:09.963Z,34.43
2023-05-13T00:15:09.964Z,34.41
2023-05-13T00:16:10.056Z,34.40
2023-05-13T00:17:10.120Z,34.42
2023-05-13T00:18:10.096Z,34.43
2023-05-13T00:19:10.219Z,34.41
2023-05-13T00:20:10.203Z,34.41
2023-05-13T00:21:10.250Z,34.43
2023-05-13T00:22:10.304Z,34.42
2023-05-13T00:23:10.544Z,34.41
2023-05-13T00:24:10.408Z,34.43
2023-05-13T00:25:10.458Z,34.44
2023-05-13T00:26:10.483Z,34.44
2023-05-13T00:27:10.502Z,34.43
2023-05-13T00:28:10.555Z,34.43
2023-05-13T00:29:10.585Z,34.44
2023-05-13T00:30:10.626Z,34.42
2023-05-13T00:31:10.664Z,34.45
2023-05-13T00:32:10.696Z,34.46
2023-05-13T00:33:10.797Z,34.45
2023-05-13T00:34:10.813Z,34.43
2023-05-13T00:35:10.835Z,34.44
2023-05-13T00:36:10.947Z,34.46
2023-05-13T00:37:10.959Z,34.44
2023-05-13T00:38:10.967Z,34.44
2023-05-13T00:39:11.042Z,34.44
2023-05-13T00:40:11.030Z,34.46
2023-05-13T00:41:11.086Z,34.47
2023-05-13T00:42:11.116Z,34.46
2023-05-13T00:43:11.208Z,34.46
2023-05-13T00:44:12.719Z,34.47
2023-05-13T00:45:11.266Z,34.48
2023-05-13T00:46:11.239Z,34.46
2023-05-13T00:47:11.257Z,34.45
2023-05-13T00:48:11.244Z,34.47
2023-05-13T00:49:11.209Z,34.47
2023-05-13T00:50:11.171Z,34.47
2023-05-13T00:51:11.169Z,34.45
2023-05-13T00:52:11.235Z,34.47
2023-05-13T00:53:11.188Z,34.46
2023-05-13T00:54:11.195Z,34.46
2023-05-13T00:55:11.194Z,34.46
2023-05-13T00:56:11.160Z,34.50
2023-05-13T00:57:11.154Z,34.48
2023-05-13T00:58:11.174Z,34.49
2023-05-13T00:59:11.181Z,34.47
2023-05-13T01:00:11.109Z,34.47
2023-05-13T01:01:11.181Z,34.51
2023-05-13T01:02:11.175Z,34.50
2023-05-13T01:03:11.722Z,34.49
2023-05-13T01:04:11.094Z,34.48
2023-05-13T01:05:11.117Z,34.50
2023-05-13T01:06:11.121Z,34.49
2023-05-13T01:07:11.089Z,34.49
2023-05-13T01:08:11.076Z,34.49
2023-05-13T01:09:11.053Z,34.48
2023-05-13T01:10:11.077Z,34.49
2023-05-13T01:11:11.054Z,34.50
2023-05-13T01:12:11.019Z,34.50
2023-05-13T01:13:11.040Z,34.49
2023-05-13T01:14:11.036Z,34.50
2023-05-13T01:15:11.014Z,34.49
2023-05-13T01:16:10.993Z,34.50
2023-05-13T01:17:11.018Z,34.50
2023-05-13T01:18:11.054Z,34.52
2023-05-13T01:19:11.005Z,34.52
2023-05-13T01:20:10.995Z,34.48
2023-05-13T01:21:11.015Z,34.49
2023-05-13T01:22:10.965Z,34.50
2023-05-13T01:23:10.918Z,34.51
2023-05-13T01:24:10.952Z,34.51
2023-05-13T01:25:10.906Z,34.49
2023-05-13T01:26:10.898Z,34.52
2023-05-13T01:27:10.896Z,34.49
2023-05-13T01:28:10.929Z,34.50
2023-05-13T01:29:10.936Z,34.51
2023-05-13T01:30:11.025Z,34.51
2023-05-13T01:31:11.121Z,34.52
2023-05-13T01:32:11.160Z,34.51
2023-05-13T01:33:11.267Z,34.53
2023-05-13T01:34:11.180Z,34.53
2023-05-13T01:35:11.209Z,34.51
2023-05-13T01:36:11.272Z,34.54
2023-05-13T01:37:11.346Z,34.52
2023-05-13T01:38:11.564Z,34.53
2023-05-13T01:39:11.418Z,34.49
2023-05-13T01:40:24.102Z,34.50
2023-05-13T01:41:12.439Z,34.54
2023-05-13T01:42:11.416Z,34.53
2023-05-13T01:43:11.468Z,34.55
2023-05-13T01:44:11.416Z,34.51
2023-05-13T01:45:11.422Z,34.52
2023-05-13T01:46:11.453Z,34.51
2023-05-13T01:47:11.398Z,34.53
2023-05-13T01:48:11.371Z,34.52
2023-05-13T01:49:11.419Z,34.52
2023-05-13T01:50:11.383Z,34.52
2023-05-13T01:51:11.353Z,34.51
2023-05-13T01:52:11.375Z,34.53
2023-05-13T01:53:11.453Z,34.54
2023-05-13T01:54:11.503Z,34.54
2023-05-13T01:55:11.486Z,34.52
2023-05-13T01:56:11.586Z,34.52
2023-05-13T01:57:11.609Z,34.51
2023-05-13T01:58:11.634Z,34.52
2023-05-13T01:59:11.699Z,34.52
2023-05-13T02:00:11.821Z,34.49
2023-05-13T02:01:11.811Z,34.52
2023-05-13T02:02:12.053Z,34.50
2023-05-13T02:03:12.020Z,34.50
2023-05-13T02:04:12.003Z,34.49
2023-05-13T02:05:12.042Z,34.52
2023-05-13T02:06:12.047Z,34.53
2023-05-13T02:07:12.109Z,34.52
2023-05-13T02:08:12.138Z,34.53
2023-05-13T02:09:12.201Z,34.52
2023-05-13T02:10:12.271Z,34.53
2023-05-13T02:11:12.314Z,34.53
2023-05-13T02:12:12.406Z,34.53
2023-05-13T02:13:12.430Z,34.53
2023-05-13T02:14:12.528Z,34.51
2023-05-13T02:15:12.526Z,34.54
2023-05-13T02:16:12.583Z,34.52
2023-05-13T02:17:12.659Z,34.54
2023-05-13T02:18:12.856Z,34.54
2023-05-13T02:19:12.805Z,34.52
2023-05-13T02:20:12.847Z,34.53
2023-05-13T02:21:12.860Z,34.53
2023-05-13T02:22:12.900Z,34.52
2023-05-13T02:23:12.993Z,34.54
2023-05-13T02:24:12.977Z,34.55
2023-05-13T02:25:13.055Z,34.54
2023-05-13T02:26:13.085Z,34.53
2023-05-13T02:27:13.156Z,34.57
2023-05-13T02:28:13.590Z,34.56
2023-05-13T02:29:13.265Z,34.52
2023-05-13T02:30:13.367Z,34.55
2023-05-13T02:31:13.388Z,34.54
2023-05-13T02:32:13.474Z,34.52
2023-05-13T02:33:13.572Z,34.57
2023-05-13T02:34:13.517Z,34.54
2023-05-13T02:35:13.598Z,34.52
2023-05-13T02:36:13.634Z,34.54
2023-05-13T02:37:13.718Z,34.56
2023-05-13T02:38:14.622Z,34.56
2023-05-13T02:39:13.851Z,34.53
2023-05-13T02:40:13.888Z,34.57
2023-05-13T02:41:13.905Z,34.55
2023-05-13T02:42:13.937Z,34.53
2023-05-13T02:43:14.023Z,34.55
2023-05-13T02:44:14.052Z,34.53
2023-05-13T02:45:14.116Z,34.53
2023-05-13T02:46:14.219Z,34.54
2023-05-13T02:47:14.229Z,34.55
2023-05-13T02:48:14.590Z,34.56
2023-05-13T02:49:14.393Z,34.54
2023-05-13T02:50:14.466Z,34.57
2023-05-13T02:51:14.531Z,34.53
2023-05-13T02:52:14.518Z,34.56
2023-05-13T02:53:14.624Z,34.57
2023-05-13T02:54:14.636Z,34.53
2023-05-13T02:55:14.772Z,34.56
2023-05-13T02:56:14.775Z,34.55
2023-05-13T02:57:14.819Z,34.56
2023-05-13T02:58:15.120Z,34.56
2023-05-13T02:59:14.935Z,34.56
2023-05-13T03:00:15.008Z,34.57
2023-05-13T03:01:15.185Z,34.56
2023-05-13T03:02:15.160Z,34.54
2023-05-13T03:03:15.264Z,34.57
2023-05-13T03:04:15.256Z,34.56
2023-05-13T03:05:15.300Z,34.56
2023-05-13T03:06:15.374Z,34.57
2023-05-13T03:07:15.424Z,34.55
2023-05-13T03:08:15.449Z,34.56
2023-05-13T03:09:15.540Z,34.56
2023-05-13T03:10:15.610Z,34.55
2023-05-13T03:11:15.664Z,34.56
2023-05-13T03:12:15.703Z,34.58
2023-05-13T03:13:15.773Z,34.57
2023-05-13T03:14:15.828Z,34.54
2023-05-13T03:15:15.886Z,34.55
2023-05-13T03:16:15.993Z,34.56
2023-05-13T03:17:16.006Z,34.57
2023-05-13T03:18:16.111Z,34.56
2023-05-13T03:19:16.333Z,34.58
2023-05-13T03:20:16.193Z,34.58
2023-05-13T03:21:16.272Z,34.56
2023-05-13T03:22:16.360Z,34.56
2023-05-13T03:23:16.389Z,34.58
2023-05-13T03:24:16.491Z,34.55
2023-05-13T03:25:16.530Z,34.55
2023-05-13T03:26:16.639Z,34.56
2023-05-13T03:27:16.656Z,34.58
2023-05-13T03:28:17.145Z,34.59
2023-05-13T03:29:16.770Z,34.59
2023-05-13T03:30:16.859Z,34.58
2023-05-13T03:31:16.875Z,34.58
2023-05-13T03:32:16.915Z,34.60
2023-05-13T03:33:17.137Z,34.58
2023-05-13T03:34:17.053Z,34.58
2023-05-13T03:35:17.149Z,34.57
2023-05-13T03:36:17.183Z,34.58
2023-05-13T03:37:17.263Z,34.61
2023-05-13T03:38:17.606Z,34.58
2023-05-13T03:39:17.346Z,34.59
2023-05-13T03:40:17.398Z,34.59
2023-05-13T03:41:17.568Z,34.60
2023-05-13T03:42:17.520Z,34.62
2023-05-13T03:43:17.587Z,34.59
2023-05-13T03:44:17.625Z,34.58
2023-05-13T03:45:17.668Z,34.60
2023-05-13T03:46:17.818Z,34.61
2023-05-13T03:47:17.792Z,34.59
2023-05-13T03:48:17.872Z,34.61
2023-05-13T03:49:17.902Z,34.61
2023-05-13T03:50:17.991Z,34.59
2023-05-13T03:51:18.003Z,34.62
2023-05-13T03:52:18.058Z,34.63
2023-05-13T03:53:18.667Z,34.59
2023-05-13T03:54:18.200Z,34.62
2023-05-13T03:55:18.261Z,34.63
2023-05-13T03:56:18.313Z,34.63
2023-05-13T03:57:18.359Z,34.62
2023-05-13T03:58:18.439Z,34.64
2023-05-13T03:59:18.472Z,34.63
2023-05-13T04:00:18.607Z,34.62
2023-05-13T04:01:18.595Z,34.64
2023-05-13T04:02:18.864Z,34.62
2023-05-13T04:03:18.763Z,34.62
2023-05-13T04:04:18.792Z,34.63
2023-05-13T04:05:19.029Z,34.61
2023-05-13T04:06:18.942Z,34.63
2023-05-13T04:07:19.020Z,34.62
2023-05-13T04:08:19.176Z,34.66
2023-05-13T04:09:19.091Z,34.60
2023-05-13T04:10:19.242Z,34.65
2023-05-13T04:11:19.195Z,34.66
2023-05-13T04:12:19.303Z,34.63
2023-05-13T04:13:19.637Z,34.66
2023-05-13T04:14:19.369Z,34.64
2023-05-13T04:15:19.477Z,34.65
2023-05-13T04:16:19.571Z,34.67
2023-05-13T04:17:19.552Z,34.65
2023-05-13T04:18:19.602Z,34.67
2023-05-13T04:19:19.647Z,34.66
2023-05-13T04:20:19.990Z,34.65
2023-05-13T04:21:19.787Z,34.68
2023-05-13T04:22:19.807Z,34.67
2023-05-13T04:23:19.897Z,34.64
2023-05-13T04:24:20.005Z,34.66
2023-05-13T04:25:20.003Z,34.66
2023-05-13T04:26:20.129Z,34.67
2023-05-13T04:27:20.119Z,34.67
2023-05-13T04:28:20.654Z,34.65
2023-05-13T04:29:20.234Z,34.69
2023-05-13T04:30:20.523Z,34.68
2023-05-13T04:31:20.356Z,34.67
2023-05-13T04:32:20.402Z,34.67
2023-05-13T04:33:20.481Z,34.70
2023-05-13T04:34:20.511Z,34.69
2023-05-13T04:35:20.565Z,34.70
2023-05-13T04:36:20.633Z,34.69
2023-05-13T04:37:20.709Z,34.69
2023-05-13T04:38:20.813Z,34.68
2023-05-13T04:39:20.790Z,34.69
2023-05-13T04:40:21.158Z,34.70
2023-05-13T04:41:20.942Z,34.70
2023-05-13T04:42:20.982Z,34.68
2023-05-13T04:43:21.154Z,34.69
2023-05-13T04:44:21.095Z,34.69
2023-05-13T04:45:21.131Z,34.70
2023-05-13T04:46:21.260Z,34.70
2023-05-13T04:47:21.294Z,34.66
2023-05-13T04:48:21.318Z,34.69
2023-05-13T04:49:21.381Z,34.70
2023-05-13T04:50:21.673Z,34.70
2023-05-13T04:51:21.507Z,34.71
2023-05-13T04:52:21.553Z,34.70
2023-05-13T04:53:22.146Z,34.71
2023-05-13T04:54:21.719Z,34.71
2023-05-13T04:55:22.702Z,34.70
2023-05-13T04:56:21.864Z,34.71
2023-05-13T04:57:21.884Z,34.71
2023-05-13T04:58:21.939Z,34.71
2023-05-13T04:59:21.987Z,34.71
2023-05-13T05:00:22.296Z,34.70
2023-05-13T05:01:22.138Z,34.71
2023-05-13T05:02:22.309Z,34.74
2023-05-13T05:03:22.300Z,34.72
2023-05-13T05:04:22.362Z,34.74
2023-05-13T05:05:22.366Z,34.73
2023-05-13T05:06:22.492Z,34.75
2023-05-13T05:07:22.497Z,34.72
2023-05-13T05:08:22.592Z,34.73
2023-05-13T05:09:22.646Z,34.74
2023-05-13T05:10:22.837Z,34.75
2023-05-13T05:11:22.762Z,34.76
2023-05-13T05:12:22.817Z,34.75
2023-05-13T05:13:23.143Z,34.75
2023-05-13T05:14:22.966Z,34.77
2023-05-13T05:15:22.961Z,34.75
2023-05-13T05:16:23.056Z,34.74
2023-05-13T05:17:23.102Z,34.75
2023-05-13T05:18:23.721Z,34.77
2023-05-13T05:19:23.256Z,34.77
2023-05-13T05:20:23.593Z,34.79
2023-05-13T05:21:23.306Z,34.77
2023-05-13T05:22:23.413Z,34.76
2023-05-13T05:23:23.412Z,34.79
2023-05-13T05:24:23.451Z,34.76
2023-05-13T05:25:23.553Z,34.80
2023-05-13T05:26:24.155Z,34.78
2023-05-13T05:27:23.632Z,34.78
2023-05-13T05:28:23.705Z,34.80
2023-05-13T05:29:23.763Z,34.79
2023-05-13T05:30:24.121Z,34.81
2023-05-13T05:31:23.919Z,34.81
2023-05-13T05:32:23.931Z,34.80
2023-05-13T05:33:23.993Z,34.82
2023-05-13T05:34:24.099Z,34.81
2023-05-13T05:35:24.107Z,34.81
2023-05-13T05:36:24.249Z,34.82
2023-05-13T05:37:24.231Z,34.81
2023-05-13T05:38:24.678Z,34.83
2023-05-13T05:39:24.349Z,34.81
2023-05-13T05:40:24.422Z,34.82
2023-05-13T05:41:24.477Z,34.81
2023-05-13T05:42:24.525Z,34.83
2023-05-13T05:43:24.648Z,34.83
2023-05-13T05:44:24.627Z,34.84
2023-05-13T05:45:24.649Z,34.82
2023-05-13T05:46:24.835Z,34.84
2023-05-13T05:47:24.805Z,34.84
2023-05-13T05:48:25.169Z,34.84
2023-05-13T05:49:24.896Z,34.84
2023-05-13T05:50:24.919Z,34.85
2023-05-13T05:51:24.986Z,34.85
2023-05-13T05:52:25.010Z,34.86
2023-05-13T05:53:25.102Z,34.86
2023-05-13T05:54:25.097Z,34.88
2023-05-13T05:55:25.195Z,34.87
2023-05-13T05:56:25.266Z,34.87
2023-05-13T05:57:25.280Z,34.88
2023-05-13T05:58:25.337Z,34.85
2023-05-13T05:59:25.673Z,34.90
2023-05-13T06:00:25.444Z,34.89
2023-05-13T06:01:25.515Z,34.89
2023-05-13T06:02:25.632Z,34.89
2023-05-13T06:03:25.709Z,34.86
2023-05-13T06:04:25.664Z,34.90
2023-05-13T06:05:25.724Z,34.90
2023-05-13T06:06:25.847Z,34.90
2023-05-13T06:07:25.859Z,34.90
2023-05-13T06:08:25.907Z,34.89
2023-05-13T06:09:25.952Z,34.89
2023-05-13T06:10:26.013Z,34.90
2023-05-13T06:11:26.065Z,34.89
2023-05-13T06:12:26.112Z,34.91
2023-05-13T06:13:26.221Z,34.92
2023-05-13T06:14:26.236Z,34.91
2023-05-13T06:15:26.332Z,34.92
2023-05-13T06:16:26.436Z,34.92
2023-05-13T06:17:26.390Z,34.93
2023-05-13T06:18:26.719Z,34.93
2023-05-13T06:19:26.664Z,34.93
2023-05-13T06:20:26.577Z,34.93
2023-05-13T06:21:26.661Z,34.93
2023-05-13T06:22:26.683Z,34.94
2023-05-13T06:23:26.788Z,34.93
2023-05-13T06:24:26.822Z,34.94
2023-05-13T06:25:26.861Z,34.95
2023-05-13T06:26:26.953Z,34.94
2023-05-13T06:27:26.970Z,34.94
2023-05-13T06:28:27.050Z,34.93
2023-05-13T06:29:27.116Z,34.93
2023-05-13T06:30:27.264Z,34.94
2023-05-13T06:31:27.236Z,34.96
2023-05-13T06:32:27.309Z,34.98
2023-05-13T06:33:27.333Z,34.98
2023-05-13T06:34:27.365Z,34.97
2023-05-13T06:35:27.393Z,34.98
2023-05-13T06:36:27.391Z,34.98
2023-05-13T06:37:27.529Z,34.98
2023-05-13T06:38:27.495Z,34.98
2023-05-13T06:39:27.615Z,34.97
2023-05-13T06:40:27.674Z,35.00
2023-05-13T06:41:27.677Z,34.97
2023-05-13T06:42:27.734Z,34.98
2023-05-13T06:43:27.784Z,34.99
2023-05-13T06:44:27.843Z,34.99
2023-05-13T06:45:27.868Z,35.01
2023-05-13T06:46:27.917Z,34.97
2023-05-13T06:47:28.037Z,35.01
2023-05-13T06:48:28.079Z,35.00
2023-05-13T06:49:28.191Z,34.99
2023-05-13T06:50:28.151Z,35.00
2023-05-13T06:51:28.207Z,35.01
2023-05-13T06:52:28.254Z,35.01
2023-05-13T06:53:28.415Z,35.01
2023-05-13T06:54:28.369Z,35.02
2023-05-13T06:55:28.438Z,35.01
2023-05-13T06:56:28.464Z,35.02
2023-05-13T06:57:41.415Z,35.02
2023-05-13T06:58:29.518Z,35.03
2023-05-13T06:59:28.524Z,35.03
2023-05-13T07:00:28.506Z,35.03
2023-05-13T07:01:28.518Z,35.03
2023-05-13T07:02:28.525Z,35.03
2023-05-13T07:03:29.231Z,35.03
2023-05-13T07:04:28.703Z,35.03
2023-05-13T07:05:28.455Z,35.03
2023-05-13T07:06:28.464Z,35.04
2023-05-13T07:07:28.569Z,35.04
2023-05-13T07:08:28.582Z,35.02
2023-05-13T07:09:28.657Z,35.05
2023-05-13T07:10:28.741Z,35.04
2023-05-13T07:11:28.853Z,35.05
2023-05-13T07:12:28.864Z,35.04
2023-05-13T07:13:28.894Z,35.01
2023-05-13T07:14:28.983Z,35.06
2023-05-13T07:15:29.046Z,35.06
2023-05-13T07:16:29.089Z,35.04
2023-05-13T07:17:29.243Z,35.04
2023-05-13T07:18:29.330Z,35.05
2023-05-13T07:19:29.726Z,35.04
2023-05-13T07:20:29.317Z,35.05
2023-05-13T07:21:29.416Z,35.05
2023-05-13T07:22:29.444Z,35.07
2023-05-13T07:23:29.511Z,35.05
2023-05-13T07:24:29.568Z,35.04
2023-05-13T07:25:29.601Z,35.05
2023-05-13T07:26:29.628Z,35.03
2023-05-13T07:27:29.714Z,35.06
2023-05-13T07:28:29.764Z,35.06
2023-05-13T07:29:29.862Z,35.05
2023-05-13T07:30:29.992Z,35.05
2023-05-13T07:31:29.958Z,35.05
2023-05-13T07:32:30.049Z,35.04
2023-05-13T07:33:30.054Z,35.03
2023-05-13T07:34:30.095Z,35.04
2023-05-13T07:35:30.138Z,35.04
2023-05-13T07:36:30.270Z,35.07
2023-05-13T07:37:30.256Z,35.05
2023-05-13T07:38:30.370Z,35.04
2023-05-13T07:39:30.375Z,35.04
2023-05-13T07:40:30.489Z,35.04
2023-05-13T07:41:30.506Z,35.06
2023-05-13T07:42:30.579Z,35.04
2023-05-13T07:43:30.637Z,35.07
2023-05-13T07:44:30.722Z,35.06
2023-05-13T07:45:30.723Z,35.07
2023-05-13T07:46:30.894Z,35.06
2023-05-13T07:47:30.920Z,35.05
2023-05-13T07:48:30.918Z,35.06
2023-05-13T07:49:31.025Z,35.07
2023-05-13T07:50:31.065Z,35.06
2023-05-13T07:51:31.119Z,35.05
2023-05-13T07:52:31.186Z,35.07
2023-05-13T07:53:31.239Z,35.05
2023-05-13T07:54:31.708Z,35.08
2023-05-13T07:55:31.367Z,35.07
2023-05-13T07:56:31.377Z,35.08
2023-05-13T07:57:31.428Z,35.08
2023-05-13T07:58:31.476Z,35.08
2023-05-13T07:59:31.721Z,35.07
2023-05-13T08:00:31.544Z,35.09
2023-05-13T08:01:31.633Z,35.08
2023-05-13T08:02:31.739Z,35.07
2023-05-13T08:03:31.853Z,35.08
2023-05-13T08:04:32.224Z,35.09
2023-05-13T08:05:31.826Z,35.08
2023-05-13T08:06:32.717Z,35.08
2023-05-13T08:07:31.925Z,35.05
2023-05-13T08:08:32.015Z,35.07
2023-05-13T08:09:32.227Z,35.09
2023-05-13T08:10:32.052Z,35.08
2023-05-13T08:11:32.177Z,35.07
2023-05-13T08:12:32.190Z,35.10
2023-05-13T08:13:32.249Z,35.12
2023-05-13T08:14:32.287Z,35.09
2023-05-13T08:15:32.375Z,35.10
2023-05-13T08:16:32.470Z,35.07
2023-05-13T08:17:32.460Z,35.08
2023-05-13T08:18:32.487Z,35.07
2023-05-13T08:19:32.718Z,35.10
2023-05-13T08:20:32.563Z,35.09
2023-05-13T08:21:32.606Z,35.09
2023-05-13T08:22:32.657Z,35.11
2023-05-13T08:23:43.914Z,35.09
2023-05-13T08:24:34.207Z,35.10
2023-05-13T08:25:32.697Z,35.09
2023-05-13T08:26:32.709Z,35.09
2023-05-13T08:27:32.705Z,35.09
2023-05-13T08:28:32.686Z,35.09
2023-05-13T08:29:32.700Z,35.10
2023-05-13T08:30:32.674Z,35.10
2023-05-13T08:31:32.783Z,35.08
2023-05-13T08:32:32.809Z,35.07
2023-05-13T08:33:32.670Z,35.10
2023-05-13T08:34:32.697Z,35.08
2023-05-13T08:35:32.635Z,35.10
2023-05-13T08:36:32.714Z,35.09
2023-05-13T08:37:32.794Z,35.09
2023-05-13T08:38:32.791Z,35.11
2023-05-13T08:39:32.841Z,35.09
2023-05-13T08:40:32.910Z,35.09
2023-05-13T08:41:32.950Z,35.10
2023-05-13T08:42:32.996Z,35.09
2023-05-13T08:43:33.074Z,35.08
2023-05-13T08:44:33.099Z,35.09
2023-05-13T08:45:33.132Z,35.09
2023-05-13T08:46:33.150Z,35.07
2023-05-13T08:47:34.297Z,35.10
2023-05-13T08:48:33.206Z,35.09
2023-05-13T08:49:33.218Z,35.09
2023-05-13T08:50:33.150Z,35.10
2023-05-13T08:51:33.167Z,35.12
2023-05-13T08:52:33.176Z,35.08
2023-05-13T08:53:33.145Z,35.10
2023-05-13T08:54:33.220Z,35.08
2023-05-13T08:55:33.155Z,35.09
2023-05-13T08:56:33.168Z,35.09
2023-05-13T08:57:33.174Z,35.09
2023-05-13T08:58:33.132Z,35.07
2023-05-13T08:59:33.220Z,35.09
2023-05-13T09:00:33.118Z,35.10
2023-05-13T09:01:33.130Z,35.09
2023-05-13T09:02:33.148Z,35.11
2023-05-13T09:03:33.096Z,35.10
2023-05-13T09:04:33.230Z,35.10
2023-05-13T09:05:34.144Z,35.11
2023-05-13T09:06:33.080Z,35.10
2023-05-13T09:07:33.079Z,35.11
2023-05-13T09:08:33.057Z,35.10
2023-05-13T09:09:33.255Z,35.09
2023-05-13T09:10:33.060Z,35.10
2023-05-13T09:11:33.050Z,35.11
2023-05-13T09:12:33.074Z,35.11
2023-05-13T09:13:33.064Z,35.10
2023-05-13T09:14:33.231Z,35.11
2023-05-13T09:15:33.118Z,35.08
2023-05-13T09:16:33.106Z,35.09
2023-05-13T09:17:33.171Z,35.09
2023-05-13T09:18:33.200Z,35.11
2023-05-13T09:19:33.293Z,35.10
2023-05-13T09:20:33.192Z,35.09
2023-05-13T09:21:33.253Z,35.14
2023-05-13T09:22:33.195Z,35.08
2023-05-13T09:23:33.205Z,35.09
2023-05-13T09:24:33.776Z,35.11
2023-05-13T09:25:33.296Z,35.07
2023-05-13T09:26:33.289Z,35.11
2023-05-13T09:27:33.329Z,35.10
2023-05-13T09:28:33.388Z,35.09
2023-05-13T09:29:33.375Z,35.10
2023-05-13T09:30:33.745Z,35.08
2023-05-13T09:31:33.430Z,35.10
2023-05-13T09:32:33.466Z,35.11
2023-05-13T09:33:33.479Z,35.10
2023-05-13T09:34:33.470Z,35.08
2023-05-13T09:35:33.528Z,35.09
2023-05-13T09:36:33.523Z,35.09
2023-05-13T09:37:33.560Z,35.08
2023-05-13T09:38:33.590Z,35.11
2023-05-13T09:39:34.225Z,35.08
2023-05-13T09:40:33.623Z,35.09
2023-05-13T09:41:33.668Z,35.09
2023-05-13T09:42:33.681Z,35.08
2023-05-13T09:43:33.665Z,35.07
2023-05-13T09:44:33.705Z,35.06
2023-05-13T09:45:33.717Z,35.07
2023-05-13T09:46:33.782Z,35.08
2023-05-13T09:47:33.842Z,35.08
2023-05-13T09:48:33.767Z,35.09
2023-05-13T09:49:33.780Z,35.10
2023-05-13T09:50:33.808Z,35.07
2023-05-13T09:51:33.864Z,35.09
2023-05-13T09:52:33.840Z,35.07
2023-05-13T09:53:33.892Z,35.08
2023-05-13T09:54:33.873Z,35.08
2023-05-13T09:55:33.880Z,35.09
2023-05-13T09:56:33.931Z,35.09
2023-05-13T09:57:33.974Z,35.09
2023-05-13T09:58:33.982Z,35.09
2023-05-13T09:59:34.004Z,35.09
2023-05-13T10:00:35.464Z,35.07
2023-05-13T10:01:34.044Z,35.10
2023-05-13T10:02:34.063Z,35.09
2023-05-13T10:03:34.027Z,35.10
2023-05-13T10:04:34.008Z,35.06
2023-05-13T10:05:34.010Z,35.08
2023-05-13T10:06:33.981Z,35.08
2023-05-13T10:07:33.980Z,35.08
2023-05-13T10:08:33.965Z,35.07
2023-05-13T10:09:33.941Z,35.09
2023-05-13T10:10:33.983Z,35.08
2023-05-13T10:11:33.966Z,35.09
2023-05-13T10:12:33.932Z,35.07
2023-05-13T10:13:33.925Z,35.07
2023-05-13T10:14:33.946Z,35.09
2023-05-13T10:15:33.942Z,35.07
2023-05-13T10:16:33.955Z,35.08
2023-05-13T10:17:33.928Z,35.06
2023-05-13T10:18:33.939Z,35.08
2023-05-13T10:19:33.879Z,35.07
2023-05-13T10:20:34.276Z,35.08
2023-05-13T10:21:33.877Z,35.07
2023-05-13T10:22:33.879Z,35.07
2023-05-13T10:23:33.858Z,35.07
2023-05-13T10:24:33.850Z,35.08
2023-05-13T10:25:33.867Z,35.07
2023-05-13T10:26:33.863Z,35.06
2023-05-13T10:27:33.931Z,35.10
2023-05-13T10:28:33.816Z,35.09
2023-05-13T10:29:33.822Z,35.09
2023-05-13T10:30:34.236Z,35.07
2023-05-13T10:31:33.826Z,35.07
2023-05-13T10:32:33.819Z,35.07
2023-05-13T10:33:33.798Z,35.09
2023-05-13T10:34:33.809Z,35.06
2023-05-13T10:35:37.093Z,35.08
2023-05-13T10:36:33.754Z,35.09
2023-05-13T10:37:33.779Z,35.06
2023-05-13T10:38:33.752Z,35.05
2023-05-13T10:39:33.753Z,35.07
2023-05-13T10:40:33.744Z,35.08
2023-05-13T10:41:33.755Z,35.07
2023-05-13T10:42:33.705Z,35.07
2023-05-13T10:43:33.719Z,35.08
2023-05-13T10:44:33.731Z,35.08
2023-05-13T10:45:33.764Z,35.08
2023-05-13T10:46:33.726Z,35.05
2023-05-13T10:47:33.855Z,35.08
2023-05-13T10:48:33.762Z,35.08
2023-05-13T10:49:33.695Z,35.06
2023-05-13T10:50:33.753Z,35.07
2023-05-13T10:51:33.676Z,35.07
2023-05-13T10:52:33.679Z,35.07
2023-05-13T10:53:33.694Z,35.08
2023-05-13T10:54:33.668Z,35.07
2023-05-13T10:55:33.632Z,35.07
2023-05-13T10:56:33.645Z,35.06
2023-05-13T10:57:33.651Z,35.07
2023-05-13T10:58:33.625Z,35.09
2023-05-13T10:59:33.584Z,35.08
2023-05-13T11:00:33.594Z,35.08
2023-05-13T11:01:33.674Z,35.08
2023-05-13T11:02:33.661Z,35.10
2023-05-13T11:03:33.669Z,35.06
2023-05-13T11:04:33.592Z,35.07
2023-05-13T11:05:33.605Z,35.08
2023-05-13T11:06:33.576Z,35.07
2023-05-13T11:07:33.576Z,35.07
2023-05-13T11:08:33.558Z,35.07
2023-05-13T11:09:33.565Z,35.07
2023-05-13T11:10:33.775Z,35.06
2023-05-13T11:11:33.568Z,35.08
2023-05-13T11:12:33.582Z,35.09
2023-05-13T11:13:33.516Z,35.05
2023-05-13T11:14:33.571Z,35.06
2023-05-13T11:15:33.753Z,35.06
2023-05-13T11:16:33.547Z,35.08
2023-05-13T11:17:33.536Z,35.07
2023-05-13T11:18:33.719Z,35.07
2023-05-13T11:19:33.498Z,35.06
2023-05-13T11:20:45.345Z,35.04
2023-05-13T11:21:34.456Z,35.08
2023-05-13T11:22:33.493Z,35.06
2023-05-13T11:23:33.467Z,35.08
2023-05-13T11:24:33.459Z,35.07
2023-05-13T11:25:33.742Z,35.08
2023-05-13T11:26:33.451Z,35.07
2023-05-13T11:27:33.464Z,35.05
2023-05-13T11:28:33.420Z,35.10
2023-05-13T11:29:33.428Z,35.08
2023-05-13T11:30:33.400Z,35.06
2023-05-13T11:31:33.464Z,35.06
2023-05-13T11:32:33.413Z,35.06
2023-05-13T11:33:33.386Z,35.06
2023-05-13T11:34:33.386Z,35.07
2023-05-13T11:35:33.793Z,35.05
2023-05-13T11:36:33.402Z,35.08
2023-05-13T11:37:33.415Z,35.05
2023-05-13T11:38:33.437Z,35.04
2023-05-13T11:39:33.435Z,35.07
2023-05-13T11:40:33.476Z,35.05
2023-05-13T11:41:33.490Z,35.06
2023-05-13T11:42:33.468Z,35.05
2023-05-13T11:43:34.584Z,35.05
2023-05-13T11:44:33.473Z,35.05
2023-05-13T11:45:33.799Z,35.04
2023-05-13T11:46:33.476Z,35.05
2023-05-13T11:47:33.506Z,35.06
2023-05-13T11:48:33.516Z,35.04
2023-05-13T11:49:33.541Z,35.06
2023-05-13T11:50:33.813Z,35.06
2023-05-13T11:51:33.573Z,35.03
2023-05-13T11:52:33.552Z,35.07
2023-05-13T11:53:33.562Z,35.07
2023-05-13T11:54:33.563Z,35.04
2023-05-13T11:55:33.620Z,35.03
2023-05-13T11:56:33.594Z,35.06
2023-05-13T11:57:33.582Z,35.06
2023-05-13T11:58:33.636Z,35.07
2023-05-13T11:59:45.124Z,35.04
2023-05-13T12:00:34.662Z,35.06
2023-05-13T12:01:33.624Z,35.06
2023-05-13T12:02:33.719Z,35.06
2023-05-13T12:03:33.653Z,35.04
2023-05-13T12:04:33.591Z,35.05
2023-05-13T12:05:33.646Z,35.04
2023-05-13T12:06:33.600Z,35.06
2023-05-13T12:07:33.565Z,35.06
2023-05-13T12:08:33.574Z,35.04
2023-05-13T12:09:33.556Z,35.06
2023-05-13T12:10:33.545Z,35.06
2023-05-13T12:11:33.563Z,35.07
2023-05-13T12:12:33.553Z,35.06
2023-05-13T12:13:33.541Z,35.04
2023-05-13T12:14:33.509Z,35.04
2023-05-13T12:15:33.579Z,35.06
2023-05-13T12:16:33.694Z,35.04
2023-05-13T12:17:33.564Z,35.06
2023-05-13T12:18:33.600Z,35.03
2023-05-13T12:19:33.492Z,35.06
2023-05-13T12:20:33.789Z,35.05
2023-05-13T12:21:33.514Z,35.03
2023-05-13T12:22:33.526Z,35.06
2023-05-13T12:23:33.465Z,35.06
2023-05-13T12:24:33.516Z,35.05
2023-05-13T12:25:33.801Z,35.05
2023-05-13T12:26:33.492Z,35.06
2023-05-13T12:27:33.445Z,35.06
2023-05-13T12:28:34.269Z,35.06
2023-05-13T12:29:33.465Z,35.05
2023-05-13T12:30:33.785Z,35.06
2023-05-13T12:31:33.547Z,35.07
2023-05-13T12:32:33.500Z,35.06
2023-05-13T12:33:33.411Z,35.09
2023-05-13T12:34:33.395Z,35.07
2023-05-13T12:35:33.390Z,35.05
2023-05-13T12:36:33.515Z,35.06
2023-05-13T12:37:33.371Z,35.07
2023-05-13T12:38:33.392Z,35.07
2023-05-13T12:39:33.368Z,35.07
2023-05-13T12:40:33.376Z,35.10
2023-05-13T12:41:33.353Z,35.08
2023-05-13T12:42:33.347Z,35.06
2023-05-13T12:43:33.350Z,35.08
2023-05-13T12:44:33.337Z,35.10
2023-05-13T12:45:33.427Z,35.08
2023-05-13T12:46:33.424Z,35.09
2023-05-13T12:47:33.412Z,35.09
2023-05-13T12:48:33.377Z,35.07
2023-05-13T12:49:33.394Z,35.10
2023-05-13T12:50:33.474Z,35.09
2023-05-13T12:51:33.848Z,35.11
2023-05-13T12:52:33.506Z,35.08